Time;durP1;ratioP1;P1;durP2;ratioP2;P2;SDS_P1;SDS_P2;PMS_P1;PMS_P2;Temp;Humidity;BMP_temperature;BMP_pressure;BME280_temperature;BME280_humidity;BME280_pressure;Samples;Min_cycle;Max_cycle;Signal;HPM_P1;HPM_P2
2021/12/12 00:02:28;;;;;;;4.18;2.60;;;13.70;45.10;;;;;;5152963;27;20490;-63
2021/12/12 00:04:54;;;;;;;3.33;2.78;;;13.70;45.10;;;;;;5152852;27;20041;-63
2021/12/12 00:07:25;;;;;;;3.40;2.45;;;13.70;45.10;;;;;;5152847;27;20038;-63
2021/12/12 00:09:53;;;;;;;;;;;13.70;45.20;;;;;;5171592;27;20038;-63
2021/12/12 00:12:29;;;;;;;3.78;2.45;;;13.70;45.00;;;;;;5171149;27;19921;-63
2021/12/12 00:14:55;;;;;;;4.03;3.20;;;13.70;45.10;;;;;;5152532;27;20157;-63
2021/12/12 00:17:23;;;;;;;5.22;2.78;;;13.70;45.10;;;;;;5171073;27;20039;-63
2021/12/12 00:19:49;;;;;;;3.67;2.70;;;13.70;45.20;;;;;;5152379;27;20039;-63
2021/12/12 00:22:18;;;;;;;3.40;2.85;;;13.70;45.10;;;;;;5171142;27;20099;-64
2021/12/12 00:24:47;;;;;;;3.53;2.75;;;13.70;45.20;;;;;;5171037;27;20151;-63
2021/12/12 00:27:14;;;;;;;6.03;2.90;;;13.70;45.20;;;;;;5170908;27;20423;-64
2021/12/12 00:29:40;;;;;;;5.13;2.53;;;13.70;45.20;;;;;;5170826;27;20043;-63
2021/12/12 00:32:10;;;;;;;4.28;2.83;;;13.70;45.20;;;;;;5152067;27;20045;-64
2021/12/12 00:34:41;;;;;;;6.13;3.17;;;13.70;45.20;;;;;;5170763;27;20034;-64
2021/12/12 00:37:10;;;;;;;4.65;2.75;;;13.70;45.30;;;;;;5152263;27;20121;-63
2021/12/12 00:39:40;;;;;;;2.92;2.50;;;13.60;45.30;;;;;;5170627;27;20047;-63
2021/12/12 00:42:10;;;;;;;3.88;2.83;;;13.70;45.30;;;;;;5170644;27;20039;-63
2021/12/12 00:44:38;;;;;;;5.22;3.55;;;13.70;45.30;;;;;;5151806;27;20053;-64
2021/12/12 00:47:11;;;;;;;4.43;2.50;;;13.70;45.30;;;;;;5144587;27;20113;-63
2021/12/12 00:49:39;;;;;;;5.70;3.10;;;13.70;45.30;;;;;;5156398;27;20077;-63
2021/12/12 00:52:07;;;;;;;4.18;3.10;;;13.70;46.20;;;;;;5137873;27;20043;-64
2021/12/12 00:54:35;;;;;;;5.72;3.33;;;13.70;45.40;;;;;;5138063;27;20087;-63
2021/12/12 00:57:05;;;;;;;5.97;3.72;;;13.70;45.50;;;;;;5138045;27;20106;-63
2021/12/12 00:59:32;;;;;;;5.35;2.95;;;13.70;45.50;;;;;;5156277;27;20050;-64
2021/12/12 01:01:58;;;;;;;5.15;2.80;;;13.70;45.40;;;;;;5137779;27;20035;-63
2021/12/12 01:04:30;;;;;;;3.53;2.90;;;13.70;45.50;;;;;;5137889;27;20053;-63
2021/12/12 01:06:58;;;;;;;5.00;3.25;;;13.70;45.50;;;;;;5156231;27;20039;-63
2021/12/12 01:09:30;;;;;;;3.95;3.08;;;13.70;45.50;;;;;;5137672;27;20050;-64
2021/12/12 01:11:59;;;;;;;3.20;2.90;;;13.70;45.50;;;;;;5156060;27;20071;-62
2021/12/12 01:14:31;;;;;;;4.47;3.25;;;13.70;45.50;;;;;;5155999;27;20095;-63
2021/12/12 01:19:44;;;;;;;6.75;3.38;;;13.70;45.60;;;;;;5151460;27;1205760;-62
2021/12/12 01:22:16;;;;;;;5.95;3.00;;;13.70;45.60;;;;;;5153124;27;20042;-64
2021/12/12 01:24:45;;;;;;;3.47;3.03;;;13.70;45.60;;;;;;5153410;27;20141;-64
2021/12/12 01:27:12;;;;;;;5.70;3.13;;;13.70;45.60;;;;;;5153261;27;20070;-64
2021/12/12 01:29:40;;;;;;;4.22;2.97;;;13.60;45.60;;;;;;5153011;27;20056;-63
2021/12/12 01:32:12;;;;;;;4.97;3.22;;;13.60;45.60;;;;;;5152848;27;20041;-64
2021/12/12 01:34:39;;;;;;;4.05;2.42;;;13.60;45.60;;;;;;5171615;27;20034;-64
2021/12/12 01:37:34;;;;;;;5.55;3.08;;;13.70;45.70;;;;;;5152727;27;20049;-63
2021/12/12 01:42:52;;;;;;;5.47;3.33;;;13.60;45.60;;;;;;5130322;27;20362;-63
2021/12/12 01:48:02;;;;;;;4.90;2.90;;;13.70;45.70;;;;;;5089455;27;20414;-63
2021/12/12 01:50:36;;;;;;;4.75;2.83;;;13.70;45.70;;;;;;5088164;28;20048;-63
2021/12/12 01:53:06;;;;;;;4.57;2.90;;;13.70;45.70;;;;;;5088068;28;20051;-64
2021/12/12 01:58:38;;;;;;;3.38;2.53;;;13.70;45.80;;;;;;5089365;27;20421;-63
2021/12/12 02:01:15;;;;;;;4.95;2.47;;;13.70;45.80;;;;;;5088423;28;20045;-63
2021/12/12 02:03:49;;;;;;;4.32;2.67;;;13.70;45.90;;;;;;5088363;28;20047;-63
2021/12/12 02:06:18;;;;;;;4.97;2.65;;;13.60;45.80;;;;;;5088302;28;20040;-63
2021/12/12 02:08:44;;;;;;;2.80;2.55;;;13.60;45.90;;;;;;5088141;28;20041;-63
2021/12/12 02:11:16;;;;;;;4.63;2.95;;;13.70;45.90;;;;;;5088339;28;20048;-63
2021/12/12 02:13:47;;;;;;;5.38;3.08;;;13.70;45.90;;;;;;5089177;28;20079;-63
2021/12/12 02:16:13;;;;;;;;;;;13.70;46.00;;;;;;5088541;28;20384;-62
2021/12/12 02:18:44;;;;;;;3.10;2.47;;;13.60;45.70;;;;;;5087759;28;19920;-63
2021/12/12 02:21:24;;;;;;;5.78;2.65;;;13.60;45.90;;;;;;5089110;28;20036;-63
2021/12/12 02:38:28;;;;;;;5.15;2.83;;;13.70;46.10;;;;;;5130273;27;20354;-64
2021/12/12 02:41:00;;;;;;;3.83;2.10;;;13.70;46.20;;;;;;5129093;28;20050;-63
2021/12/12 02:43:29;;;;;;;3.20;2.22;;;13.70;46.90;;;;;;5128946;28;20040;-63
2021/12/12 02:45:57;;;;;;;3.95;2.00;;;13.70;46.10;;;;;;5128988;28;20055;-63
2021/12/12 02:48:27;;;;;;;4.88;3.08;;;13.70;46.10;;;;;;5129983;27;20557;-63
2021/12/12 02:50:56;;;;;;;4.85;2.38;;;13.70;46.20;;;;;;5109877;28;20032;-62
2021/12/12 02:53:27;;;;;;;5.68;2.85;;;13.70;46.20;;;;;;5109538;28;20081;-63
2021/12/12 02:55:59;;;;;;;3.63;1.85;;;13.70;46.20;;;;;;5109529;28;20050;-63
2021/12/12 02:58:26;;;;;;;6.22;2.97;;;13.70;46.20;;;;;;5108398;28;20074;-64
2021/12/12 03:01:05;;;;;;;2.95;2.03;;;13.70;46.20;;;;;;5109458;28;20032;-63
2021/12/12 03:03:35;;;;;;;4.07;2.50;;;13.70;46.20;;;;;;5107967;28;20525;-63
2021/12/12 03:06:04;;;;;;;3.97;1.90;;;13.70;46.30;;;;;;5109337;28;20487;-63
2021/12/12 03:08:35;;;;;;;4.75;2.30;;;13.70;46.30;;;;;;5108147;28;20036;-62
2021/12/12 03:11:00;;;;;;;2.47;1.67;;;13.70;46.30;;;;;;5107974;28;20071;-64
2021/12/12 03:13:26;;;;;;;4.22;2.00;;;13.60;46.20;;;;;;5108154;28;20082;-64
2021/12/12 03:15:56;;;;;;;2.88;2.13;;;13.70;46.30;;;;;;5107791;28;20040;-64
2021/12/12 03:18:29;;;;;;;2.90;1.90;;;13.60;46.30;;;;;;5109213;28;20051;-64
2021/12/12 03:21:00;;;;;;;3.80;1.83;;;13.70;46.40;;;;;;5107993;28;20114;-63
2021/12/12 03:23:30;;;;;;;6.03;2.67;;;13.60;46.30;;;;;;5108016;28;20044;-64
2021/12/12 03:26:00;;;;;;;3.85;1.83;;;13.60;46.40;;;;;;5124813;28;20047;-63
2021/12/12 03:28:29;;;;;;;3.70;2.35;;;13.60;46.40;;;;;;5124840;28;20040;-64
2021/12/12 03:30:57;;;;;;;4.28;2.30;;;13.60;46.40;;;;;;5107550;28;20039;-64
2021/12/12 03:33:24;;;;;;;2.70;1.75;;;13.60;46.50;;;;;;5108753;28;20040;-63
2021/12/12 03:35:54;;;;;;;3.00;2.28;;;13.60;46.50;;;;;;5108726;28;20044;-64
2021/12/12 03:38:24;;;;;;;4.07;2.28;;;13.60;46.50;;;;;;5107184;28;20062;-63
2021/12/12 03:40:50;;;;;;;3.70;2.00;;;13.60;46.50;;;;;;5107352;28;20560;-63
2021/12/12 03:43:15;;;;;;;2.67;2.10;;;13.70;46.60;;;;;;5124398;28;20043;-64
2021/12/12 03:45:43;;;;;;;4.70;1.90;;;13.60;46.60;;;;;;5107480;28;20036;-64
2021/12/12 03:48:30;;;;;;;3.38;1.63;;;13.60;46.60;;;;;;5103854;28;20394;-64
2021/12/12 03:51:02;;;;;;;4.43;2.22;;;13.60;46.60;;;;;;5093751;28;20123;-63
2021/12/12 03:53:29;;;;;;;2.65;1.70;;;13.60;46.60;;;;;;5094833;28;20041;-64
2021/12/12 03:55:55;;;;;;;2.70;1.60;;;13.60;46.60;;;;;;5093674;28;20086;-63
2021/12/12 03:58:21;;;;;;;2.97;1.65;;;13.60;46.70;;;;;;5093467;28;20051;-63
2021/12/12 04:00:55;;;;;;;4.00;1.83;;;13.60;46.70;;;;;;5093349;28;20047;-63
2021/12/12 04:03:22;;;;;;;3.53;2.25;;;13.60;46.80;;;;;;5094626;28;20043;-64
2021/12/12 04:05:51;;;;;;;3.47;1.52;;;13.60;46.80;;;;;;5094555;28;20043;-64
2021/12/12 04:08:39;;;;;;;2.85;1.73;;;13.60;46.80;;;;;;5093186;28;20072;-63
2021/12/12 04:11:12;;;;;;;4.10;2.55;;;13.60;46.80;;;;;;5094463;28;20043;-63
2021/12/12 04:13:40;;;;;;;2.28;1.50;;;13.60;46.90;;;;;;5093253;28;20091;-63
2021/12/12 04:16:09;;;;;;;3.95;1.70;;;13.60;46.90;;;;;;5092998;28;20048;-63
2021/12/12 04:18:35;;;;;;;2.58;1.33;;;13.60;46.90;;;;;;5094407;28;20047;-63
2021/12/12 04:21:02;;;;;;;4.50;1.77;;;13.60;47.00;;;;;;5093016;28;20055;-63
2021/12/12 04:23:28;;;;;;;3.40;1.60;;;13.60;47.00;;;;;;5093295;28;20054;-63
2021/12/12 04:26:21;;;;;;;4.65;1.60;;;13.60;47.00;;;;;;5094110;28;20035;-63
2021/12/12 04:31:39;;;;;;;2.20;1.40;;;13.60;47.10;;;;;;5130246;27;20399;-63
2021/12/12 04:34:09;;;;;;;2.47;1.10;;;13.60;47.10;;;;;;5129138;28;20122;-63
2021/12/12 04:36:39;;;;;;;3.92;1.80;;;13.60;47.10;;;;;;5128978;28;20046;-64
2021/12/12 04:39:12;;;;;;;2.47;1.33;;;13.60;47.90;;;;;;5128931;28;20474;-63
2021/12/12 04:41:40;;;;;;;2.92;1.30;;;13.60;47.10;;;;;;5128825;28;20067;-63
2021/12/12 04:44:06;;;;;;;2.80;1.27;;;13.60;47.20;;;;;;5129034;28;20043;-63
2021/12/12 04:50:00;;;;;;;3.17;1.30;;;13.60;47.20;;;;;;5128731;27;20043;-63
2021/12/12 04:52:40;;;;;;;3.40;1.40;;;13.60;47.20;;;;;;5129814;27;20031;-63
2021/12/12 05:00:45;;;;;;;3.30;1.13;;;13.60;47.30;;;;;;5130350;27;20407;-63
2021/12/12 05:06:11;;;;;;;1.92;1.08;;;13.60;47.40;;;;;;5130354;27;20755;-64
2021/12/12 05:08:59;;;;;;;3.58;1.83;;;13.60;47.40;;;;;;5128945;27;20043;-62
2021/12/12 05:14:37;;;;;;;3.67;1.10;;;13.60;47.40;;;;;;5109735;27;20108;-63
2021/12/12 05:19:53;;;;;;;2.92;0.82;;;13.60;47.50;;;;;;5130096;27;20451;-63
2021/12/12 05:22:25;;;;;;;1.90;0.98;;;13.60;47.50;;;;;;5129026;28;20100;-64
2021/12/12 05:24:53;;;;;;;2.22;1.05;;;13.60;47.60;;;;;;5128926;28;20479;-64
2021/12/12 05:27:23;;;;;;;2.35;0.73;;;13.60;47.60;;;;;;5128950;28;20039;-63
2021/12/12 05:29:57;;;;;;;2.63;1.03;;;13.60;47.70;;;;;;5129125;28;20043;-63
2021/12/12 05:32:24;;;;;;;2.05;0.82;;;13.60;47.70;;;;;;5128767;28;20311;-63
2021/12/12 05:34:51;;;;;;;2.60;1.00;;;13.60;47.70;;;;;;5130205;27;20088;-64
2021/12/12 05:37:22;;;;;;;1.65;0.77;;;13.60;47.80;;;;;;5130134;27;20032;-64
2021/12/12 05:39:48;;;;;;;2.90;0.88;;;13.50;47.80;;;;;;5128873;28;20084;-63
2021/12/12 05:42:17;;;;;;;2.63;1.15;;;13.60;47.80;;;;;;5128746;28;20432;-64
2021/12/12 05:44:43;;;;;;;1.67;0.70;;;13.60;47.90;;;;;;5128527;28;20056;-63
2021/12/12 05:47:09;;;;;;;2.08;0.80;;;13.60;47.90;;;;;;5128876;28;20039;-63
2021/12/12 05:49:37;;;;;;;1.92;0.80;;;13.60;48.00;;;;;;5128385;28;20044;-64
2021/12/12 05:52:08;;;;;;;1.10;0.70;;;13.60;48.00;;;;;;5128711;28;20051;-63
2021/12/12 05:54:34;;;;;;;0.90;0.50;;;13.60;48.00;;;;;;5129751;27;20035;-64
2021/12/12 05:57:01;;;;;;;1.92;0.82;;;13.60;48.10;;;;;;5129731;28;20043;-64
2021/12/12 05:59:29;;;;;;;1.95;0.77;;;13.60;48.10;;;;;;5129541;27;20037;-62
2021/12/12 06:01:57;;;;;;;2.25;0.80;;;13.60;48.20;;;;;;5129647;27;20581;-64
2021/12/12 06:04:24;;;;;;;1.65;0.68;;;13.60;48.20;;;;;;5129449;27;20031;-63
2021/12/12 06:06:50;;;;;;;2.30;0.60;;;13.60;48.20;;;;;;5128402;28;20076;-64
2021/12/12 06:09:20;;;;;;;2.10;0.63;;;13.60;48.30;;;;;;5128143;28;20043;-64
2021/12/12 06:11:49;;;;;;;0.75;0.47;;;13.60;48.30;;;;;;5129468;27;20363;-64
2021/12/12 06:14:16;;;;;;;2.53;0.60;;;13.60;48.30;;;;;;5128236;28;20100;-63
2021/12/12 06:16:43;;;;;;;1.95;0.70;;;13.60;48.40;;;;;;5128181;28;20075;-64
2021/12/12 06:19:13;;;;;;;1.38;0.73;;;13.50;48.40;;;;;;5127685;28;20070;-63
2021/12/12 06:21:40;;;;;;;1.00;0.40;;;13.60;48.50;;;;;;5128104;28;20047;-64
2021/12/12 06:24:06;;;;;;;0.85;0.35;;;13.60;48.50;;;;;;5129159;27;20178;-63
2021/12/12 06:26:33;;;;;;;1.52;0.50;;;13.60;48.50;;;;;;5129027;27;20542;-64
2021/12/12 06:28:58;;;;;;;2.00;0.55;;;13.60;48.50;;;;;;5126671;28;20433;-64
2021/12/12 06:31:24;;;;;;;0.77;0.40;;;13.60;48.60;;;;;;5114898;28;20028;-63
2021/12/12 06:33:50;;;;;;;2.75;0.60;;;13.60;48.60;;;;;;5114263;28;20070;-64
2021/12/12 06:36:16;;;;;;;1.25;0.50;;;13.60;48.60;;;;;;5114175;28;20039;-63
2021/12/12 06:38:46;;;;;;;1.33;0.40;;;13.60;48.60;;;;;;5113793;28;20043;-62
2021/12/12 06:41:12;;;;;;;1.55;0.50;;;13.60;48.50;;;;;;5115087;28;20047;-64
2021/12/12 06:43:38;;;;;;;0.75;0.30;;;13.60;48.50;;;;;;5114027;28;20038;-65
2021/12/12 06:46:06;;;;;;;1.90;0.38;;;13.60;48.50;;;;;;5113662;28;20093;-64
2021/12/12 06:48:33;;;;;;;1.17;0.55;;;13.60;48.60;;;;;;5113678;28;20483;-63
2021/12/12 06:50:59;;;;;;;0.95;0.35;;;13.60;48.50;;;;;;5113659;28;20058;-64
2021/12/12 06:53:27;;;;;;;0.80;0.35;;;13.60;48.60;;;;;;5113893;28;20433;-63
2021/12/12 06:55:55;;;;;;;1.17;0.40;;;13.60;48.70;;;;;;5113809;28;20203;-63
2021/12/12 06:58:24;;;;;;;1.40;0.35;;;13.60;48.70;;;;;;5113542;28;20070;-64
2021/12/12 07:00:54;;;;;;;1.15;0.50;;;13.60;48.70;;;;;;5114771;28;20092;-64
2021/12/12 07:03:23;;;;;;;1.67;0.50;;;13.60;48.80;;;;;;5114806;28;20075;-64
2021/12/12 07:05:50;;;;;;;0.90;0.40;;;13.50;48.80;;;;;;5113436;28;20546;-63
2021/12/12 07:08:17;;;;;;;1.15;0.30;;;13.50;48.90;;;;;;5113494;28;20093;-64
2021/12/12 07:10:44;;;;;;;1.52;0.63;;;13.50;48.90;;;;;;5113580;28;20054;-64
2021/12/12 07:13:10;;;;;;;1.00;0.50;;;13.50;49.00;;;;;;5114414;28;20031;-63
2021/12/12 07:15:41;;;;;;;0.90;0.40;;;13.50;49.00;;;;;;5114676;28;20040;-63
2021/12/12 07:18:11;;;;;;;1.10;0.47;;;13.50;49.10;;;;;;5114087;28;20048;-64
2021/12/12 07:20:37;;;;;;;1.67;0.40;;;13.50;49.10;;;;;;5113034;28;20051;-63
2021/12/12 07:23:08;;;;;;;1.15;0.22;;;13.50;49.10;;;;;;5113022;28;20061;-64
2021/12/12 07:25:35;;;;;;;1.60;0.40;;;13.50;49.10;;;;;;5113231;28;20043;-63
2021/12/12 07:28:01;;;;;;;0.60;0.30;;;13.50;49.10;;;;;;5114090;28;20543;-64
2021/12/12 07:30:28;;;;;;;0.95;0.35;;;13.40;49.00;;;;;;5113133;28;20422;-63
2021/12/12 07:32:58;;;;;;;0.73;0.30;;;13.50;49.10;;;;;;5114312;28;20047;-64
2021/12/12 07:35:26;;;;;;;0.70;0.30;;;13.40;49.00;;;;;;5113114;28;20051;-64
2021/12/12 07:37:52;;;;;;;1.10;0.30;;;13.40;49.00;;;;;;5112648;28;20058;-64
2021/12/12 07:40:20;;;;;;;0.60;0.30;;;13.40;49.00;;;;;;5113956;28;20036;-63
2021/12/12 07:42:47;;;;;;;0.75;0.30;;;13.40;49.00;;;;;;5111575;28;20044;-64
2021/12/12 07:45:15;;;;;;;0.98;0.20;;;13.40;49.00;;;;;;5112942;28;20592;-63
2021/12/12 07:47:42;;;;;;;1.35;0.40;;;13.40;49.00;;;;;;5112480;28;20058;-63
2021/12/12 07:50:13;;;;;;;1.13;0.28;;;13.40;49.00;;;;;;5112724;28;20055;-63
2021/12/12 07:52:39;;;;;;;;;;;13.40;49.10;;;;;;5112810;28;20546;-63
2021/12/12 07:55:06;;;;;;;0.75;0.40;;;13.40;48.90;;;;;;5112461;28;20010;-64
2021/12/12 07:57:32;;;;;;;0.85;0.30;;;13.40;49.00;;;;;;5112581;28;20139;-64
2021/12/12 07:59:59;;;;;;;0.95;0.85;;;13.40;49.10;;;;;;5112259;28;20047;-64
2021/12/12 08:02:26;;;;;;;0.73;0.30;;;13.40;49.10;;;;;;5113639;28;20039;-63
2021/12/12 08:04:54;;;;;;;0.70;0.25;;;13.40;49.10;;;;;;5112132;28;20078;-63
2021/12/12 08:07:23;;;;;;;1.05;0.20;;;13.40;49.20;;;;;;5113545;28;20043;-63
2021/12/12 08:09:50;;;;;;;0.98;0.47;;;13.40;49.20;;;;;;5113246;28;20043;-63
2021/12/12 08:12:22;;;;;;;0.60;0.20;;;13.40;49.20;;;;;;5113380;28;20104;-64
2021/12/12 08:14:49;;;;;;;0.52;0.30;;;13.40;49.20;;;;;;5113278;28;20043;-62
2021/12/12 08:17:16;;;;;;;0.82;0.20;;;13.40;49.20;;;;;;5111991;28;20367;-64
2021/12/12 08:19:42;;;;;;;0.38;0.20;;;13.30;49.20;;;;;;5111527;28;20051;-62
2021/12/12 08:22:10;;;;;;;0.57;0.20;;;13.30;49.30;;;;;;5113163;28;20476;-63
2021/12/12 08:24:37;;;;;;;0.50;0.20;;;13.30;49.30;;;;;;5113027;28;20402;-64
2021/12/12 08:27:05;;;;;;;0.70;0.20;;;13.30;49.40;;;;;;5113011;28;20134;-63
2021/12/12 08:29:36;;;;;;;0.70;0.20;;;13.30;49.40;;;;;;5112954;28;20055;-63
2021/12/12 08:32:05;;;;;;;0.50;0.20;;;13.30;49.40;;;;;;5113012;28;20048;-63
2021/12/12 08:34:31;;;;;;;0.52;0.20;;;13.30;49.40;;;;;;5111642;28;20070;-63
2021/12/12 08:36:58;;;;;;;0.55;0.20;;;13.30;49.70;;;;;;5111656;28;20065;-63
2021/12/12 08:39:27;;;;;;;0.77;0.20;;;13.30;49.50;;;;;;5111400;28;20044;-62
2021/12/12 08:41:54;;;;;;;0.40;0.20;;;13.30;49.60;;;;;;5112991;28;20097;-63
2021/12/12 08:44:20;;;;;;;0.50;0.20;;;13.30;49.60;;;;;;5111717;28;20116;-62
2021/12/12 08:46:51;;;;;;;0.40;0.20;;;13.30;49.70;;;;;;5111805;28;20473;-63
2021/12/12 08:49:18;;;;;;;;;;;13.30;49.70;;;;;;5112095;28;20035;-63
2021/12/12 08:51:52;;;;;;;0.80;0.20;;;13.30;49.50;;;;;;5112619;28;20339;-63
2021/12/12 08:54:26;;;;;;;0.60;0.30;;;13.30;49.70;;;;;;5112426;28;20050;-63
2021/12/12 08:57:02;;;;;;;0.68;0.20;;;13.30;49.70;;;;;;5111515;28;20027;-63
2021/12/12 08:59:29;;;;;;;0.35;0.20;;;13.30;49.70;;;;;;5111258;28;20048;-63
2021/12/12 09:01:59;;;;;;;0.77;0.30;;;13.30;49.70;;;;;;5111232;28;20047;-63
2021/12/12 09:04:31;;;;;;;0.50;0.22;;;13.30;49.80;;;;;;5111123;28;20040;-64
2021/12/12 09:10:01;;;;;;;0.93;0.20;;;13.30;49.80;;;;;;5130252;27;20438;-64
2021/12/12 09:12:30;;;;;;;;;;;13.30;49.90;;;;;;5129444;28;20047;-63
2021/12/12 09:15:07;;;;;;;0.60;0.25;;;13.30;49.70;;;;;;5128949;28;19922;-63
2021/12/12 09:17:41;;;;;;;0.60;0.20;;;13.30;49.90;;;;;;5128872;28;20123;-63
2021/12/12 09:22:59;;;;;;;1.30;0.28;;;13.30;49.90;;;;;;5130283;27;20354;-64
2021/12/12 09:25:42;;;;;;;0.63;0.30;;;13.30;50.00;;;;;;5130317;27;20429;-63
2021/12/12 09:28:30;;;;;;;0.90;0.20;;;13.30;50.00;;;;;;5130295;27;20059;-64
2021/12/12 09:31:00;;;;;;;0.55;0.20;;;13.20;50.00;;;;;;5128955;27;20047;-64
2021/12/12 09:33:40;;;;;;;0.82;0.22;;;13.30;50.20;;;;;;5128919;28;20073;-64
2021/12/12 09:38:57;;;;;;;0.45;0.20;;;13.30;50.20;;;;;;5130364;27;20407;-62
2021/12/12 09:41:51;;;;;;;0.40;0.20;;;13.20;50.20;;;;;;5129257;28;20059;-63
2021/12/12 09:53:29;;;;;;;0.70;0.22;;;13.30;50.40;;;;;;5108120;28;20121;-64
2021/12/12 09:56:07;;;;;;;0.63;0.28;;;13.30;50.40;;;;;;5108419;28;20039;-64
2021/12/12 10:05:04;;;;;;;0.55;0.20;;;13.30;50.50;;;;;;5152939;27;1159062;-64
2021/12/12 10:10:28;;;;;;;0.47;0.30;;;13.30;50.50;;;;;;5155056;27;1159402;-67
2021/12/12 10:13:02;;;;;;;0.73;0.20;;;13.20;50.60;;;;;;5153165;27;20091;-64
2021/12/12 10:15:37;;;;;;;1.05;0.20;;;13.30;50.70;;;;;;5153343;27;20058;-63
2021/12/12 10:18:09;;;;;;;0.60;0.30;;;13.20;50.60;;;;;;5152933;27;20043;-64
2021/12/12 10:20:41;;;;;;;0.35;0.20;;;13.30;50.70;;;;;;5152983;27;20054;-64
2021/12/12 10:23:41;;;;;;;0.40;0.20;;;13.30;50.70;;;;;;5171716;27;20094;-64
2021/12/12 10:26:15;;;;;;;0.30;0.20;;;13.30;50.70;;;;;;5153235;27;20144;-63
2021/12/12 10:28:56;;;;;;;0.50;0.20;;;13.30;50.70;;;;;;5171392;27;20129;-64
2021/12/12 10:34:07;;;;;;;0.50;0.15;;;13.30;50.80;;;;;;5130374;27;20402;-64
2021/12/12 10:36:42;;;;;;;1.13;0.20;;;13.30;50.90;;;;;;5129065;28;20536;-64
2021/12/12 10:41:55;;;;;;;0.50;0.20;;;13.30;50.90;;;;;;5152697;27;1170742;-64
2021/12/12 10:44:31;;;;;;;0.50;0.20;;;13.30;51.00;;;;;;5153129;27;20074;-63
2021/12/12 10:47:33;;;;;;;0.43;0.20;;;13.30;51.00;;;;;;5153106;27;20042;-64
2021/12/12 10:50:23;;;;;;;0.50;0.20;;;13.30;51.00;;;;;;5171475;27;20041;-64
2021/12/12 10:53:14;;;;;;;0.40;0.20;;;13.30;51.00;;;;;;5152952;27;20053;-64
2021/12/12 11:01:11;;;;;;;0.82;0.20;;;13.30;51.10;;;;;;5130231;27;20755;-64
2021/12/12 11:07:03;;;;;;;0.52;0.20;;;13.30;51.90;;;;;;5109737;27;20675;-62
2021/12/12 11:09:41;;;;;;;0.40;0.20;;;13.30;51.20;;;;;;5109957;28;20047;-64
2021/12/12 11:17:44;;;;;;;0.45;0.15;;;13.30;51.20;;;;;;5152710;27;1170807;-63
2021/12/12 11:23:08;;;;;;;0.50;0.20;;;13.30;51.30;;;;;;5089477;28;20417;-64
2021/12/12 11:25:41;;;;;;;0.65;0.20;;;13.30;51.40;;;;;;5088107;28;20494;-63
2021/12/12 11:28:30;;;;;;;0.30;0.20;;;13.30;51.40;;;;;;5089525;28;20391;-64
2021/12/12 11:31:04;;;;;;;0.25;0.10;;;13.30;51.40;;;;;;5088016;28;20483;-64
2021/12/12 11:33:33;;;;;;;0.22;0.13;;;13.30;51.50;;;;;;5088235;28;20119;-64
2021/12/12 11:36:00;;;;;;;0.52;0.20;;;13.30;51.50;;;;;;5088228;28;20044;-64
2021/12/12 11:44:28;;;;;;;0.20;0.17;;;13.30;51.60;;;;;;5130220;27;20350;-64
2021/12/12 11:50:12;;;;;;;0.35;0.10;;;13.40;52.50;;;;;;5130252;27;20357;-63
2021/12/12 11:52:58;;;;;;;0.73;0.30;;;13.30;51.60;;;;;;5129006;27;20039;-63
2021/12/12 11:55:33;;;;;;;0.38;0.10;;;13.30;51.70;;;;;;5128969;28;20057;-63
2021/12/12 11:58:39;;;;;;;0.40;0.10;;;13.30;51.70;;;;;;5130330;27;20376;-64
2021/12/12 12:01:16;;;;;;;0.30;0.17;;;13.30;51.70;;;;;;5128816;27;20120;-65
2021/12/12 12:04:19;;;;;;;0.35;0.15;;;13.30;51.80;;;;;;5130209;27;20046;-64
2021/12/12 12:07:25;;;;;;;0.50;0.20;;;13.30;51.90;;;;;;5129822;27;20043;-64
2021/12/12 12:18:41;;;;;;;0.40;0.20;;;13.30;51.90;;;;;;5154833;27;1163646;-64
2021/12/12 12:21:32;;;;;;;0.38;0.20;;;13.30;52.00;;;;;;5153155;27;20042;-64
2021/12/12 12:24:17;;;;;;;0.60;0.15;;;13.30;52.00;;;;;;5153198;27;20035;-64
2021/12/12 12:26:55;;;;;;;0.40;0.20;;;13.30;52.00;;;;;;5153010;27;20046;-63
2021/12/12 12:41:41;;;;;;;0.63;0.20;;;13.30;52.10;;;;;;5089321;27;20417;-63
2021/12/12 12:44:46;;;;;;;0.40;0.20;;;13.30;52.20;;;;;;5088069;28;20036;-64
2021/12/12 12:47:52;;;;;;;0.20;0.10;;;13.30;52.30;;;;;;5089004;28;20393;-64
2021/12/12 12:50:40;;;;;;;0.30;0.10;;;13.30;52.30;;;;;;5087918;28;20056;-63
2021/12/12 13:01:54;;;;;;;0.85;0.10;;;13.40;52.50;;;;;;5171872;27;19911;-63
2021/12/12 13:04:33;;;;;;;0.43;0.20;;;13.40;52.50;;;;;;5132578;27;20439;-62
2021/12/12 13:15:24;;;;;;;0.40;0.20;;;13.30;52.50;;;;;;5153094;27;1157312;-64
2021/12/12 13:20:42;;;;;;;0.43;0.15;;;13.40;52.70;;;;;;5130134;27;20855;-64
2021/12/12 13:23:36;;;;;;;0.40;0.20;;;13.40;52.70;;;;;;5129095;28;20056;-64
2021/12/12 13:26:06;;;;;;;0.45;0.10;;;13.40;52.70;;;;;;5128920;28;20443;-65
2021/12/12 13:34:35;;;;;;;0.30;0.20;;;13.40;52.80;;;;;;5130308;27;20415;-64
2021/12/12 13:37:40;;;;;;;0.40;0.17;;;13.40;52.80;;;;;;5128991;28;20047;-64
2021/12/12 13:40:31;;;;;;;0.22;0.10;;;13.40;52.80;;;;;;5128884;28;20053;-63
2021/12/12 14:02:33;;;;;;;0.43;0.20;;;13.40;53.30;;;;;;5152774;27;1167120;-64
2021/12/12 14:08:01;;;;;;;0.40;0.28;;;13.40;53.40;;;;;;5130299;27;20295;-63
2021/12/12 14:10:35;;;;;;;0.60;0.30;;;13.40;53.50;;;;;;5129137;28;20455;-64
2021/12/12 14:13:08;;;;;;;0.60;0.30;;;13.40;53.60;;;;;;5128960;28;20043;-64
2021/12/12 14:15:37;;;;;;;0.38;0.20;;;13.40;53.70;;;;;;5130157;27;20066;-63
2021/12/12 14:18:06;;;;;;;0.47;0.20;;;13.40;53.70;;;;;;5129177;28;20084;-63
2021/12/12 14:20:53;;;;;;;0.70;0.20;;;13.40;53.70;;;;;;5130009;27;20066;-65
2021/12/12 14:23:24;;;;;;;0.60;0.30;;;13.40;53.70;;;;;;5130031;27;20530;-63
2021/12/12 14:25:54;;;;;;;0.43;0.28;;;13.40;53.80;;;;;;5129825;27;20045;-65
2021/12/12 14:28:21;;;;;;;0.70;0.30;;;13.40;53.90;;;;;;5128903;28;20043;-66
2021/12/12 14:30:51;;;;;;;0.60;0.20;;;13.40;53.90;;;;;;5129877;27;20046;-66
2021/12/12 14:33:23;;;;;;;0.85;0.40;;;13.40;54.00;;;;;;5129879;27;20039;-67
2021/12/12 14:35:53;;;;;;;0.63;0.22;;;13.40;54.00;;;;;;5129735;27;20050;-67
2021/12/12 14:38:20;;;;;;;0.88;0.30;;;13.40;54.00;;;;;;5128462;28;20070;-66
2021/12/12 14:40:49;;;;;;;0.40;0.20;;;13.40;54.00;;;;;;5128394;27;20043;-66
2021/12/12 14:43:24;;;;;;;0.50;0.20;;;13.40;54.10;;;;;;5128328;27;20039;-66
2021/12/12 14:46:17;;;;;;;0.52;0.30;;;13.40;54.10;;;;;;5128550;28;20114;-65
2021/12/12 14:48:55;;;;;;;0.38;0.22;;;13.50;54.10;;;;;;5128159;28;20043;-65
2021/12/12 14:51:28;;;;;;;0.63;0.30;;;13.50;54.20;;;;;;5128168;28;20043;-67
2021/12/12 14:54:00;;;;;;;0.50;0.30;;;13.50;54.30;;;;;;5129598;27;20035;-65
2021/12/12 14:56:31;;;;;;;0.50;0.40;;;13.50;54.30;;;;;;5128093;28;20048;-67
2021/12/12 14:59:00;;;;;;;0.43;0.22;;;13.50;54.30;;;;;;5129456;27;20368;-65
2021/12/12 15:04:14;;;;;;;0.93;0.30;;;13.50;54.30;;;;;;5130247;27;20780;-63
2021/12/12 15:18:08;;;;;;;0.20;0.20;;;13.50;54.50;;;;;;5130306;27;20706;-64
2021/12/12 15:20:40;;;;;;;0.30;0.20;;;13.50;54.60;;;;;;5129288;28;20501;-63
2021/12/12 15:23:11;;;;;;;0.85;0.20;;;13.40;54.60;;;;;;5129216;28;20386;-64
2021/12/12 15:25:42;;;;;;;0.63;0.30;;;13.50;54.70;;;;;;5130350;27;20036;-63
2021/12/12 15:28:11;;;;;;;0.30;0.20;;;13.50;54.70;;;;;;5130164;27;20047;-64
2021/12/12 15:30:47;;;;;;;1.10;0.20;;;13.50;54.70;;;;;;5128834;28;20063;-64
2021/12/12 15:33:17;;;;;;;0.45;0.20;;;13.40;54.70;;;;;;5128974;28;20050;-63
2021/12/12 15:35:43;;;;;;;0.40;0.20;;;13.50;54.80;;;;;;5130168;27;20035;-64
2021/12/12 15:38:19;;;;;;;0.50;0.20;;;13.50;54.80;;;;;;5130147;27;20097;-64
2021/12/12 15:40:50;;;;;;;0.40;0.20;;;13.40;54.80;;;;;;5129906;27;20122;-64
2021/12/12 15:43:38;;;;;;;0.63;0.30;;;13.50;54.90;;;;;;5129834;27;20059;-63
2021/12/12 15:46:11;;;;;;;0.30;0.20;;;13.50;54.80;;;;;;5129846;28;20167;-64
2021/12/12 15:48:54;;;;;;;0.50;0.30;;;13.50;54.90;;;;;;5129657;27;20035;-64
2021/12/12 15:51:23;;;;;;;0.50;0.28;;;13.50;55.00;;;;;;5128695;28;20044;-64
2021/12/12 15:53:54;;;;;;;0.40;0.20;;;13.50;54.90;;;;;;5128567;28;20497;-64
2021/12/12 15:56:37;;;;;;;0.30;0.20;;;13.50;55.00;;;;;;5128452;28;20039;-63
2021/12/12 15:59:10;;;;;;;0.35;0.25;;;13.50;55.00;;;;;;5128534;28;20035;-63
2021/12/12 16:01:43;;;;;;;0.57;0.20;;;13.50;55.00;;;;;;5129595;27;20039;-65
2021/12/12 16:04:10;;;;;;;0.57;0.20;;;13.50;55.00;;;;;;5128329;28;20164;-64
2021/12/12 16:06:39;;;;;;;0.47;0.30;;;13.50;55.10;;;;;;5129335;27;20047;-64
2021/12/12 16:09:17;;;;;;;0.40;0.20;;;13.50;55.10;;;;;;5128340;28;20422;-63
2021/12/12 16:11:44;;;;;;;0.70;0.30;;;13.50;55.10;;;;;;5129348;27;20031;-64
2021/12/12 16:14:12;;;;;;;0.60;0.35;;;13.50;55.10;;;;;;5127912;28;20093;-64
2021/12/12 16:16:45;;;;;;;0.40;0.40;;;13.50;55.20;;;;;;5127654;28;20059;-63
2021/12/12 16:19:22;;;;;;;0.70;0.40;;;13.50;55.20;;;;;;5128035;28;20039;-65
2021/12/12 16:21:52;;;;;;;0.50;0.20;;;13.50;55.30;;;;;;5129332;27;20110;-64